Time;durP1;ratioP1;P1;durP2;ratioP2;P2;SDS_P1;SDS_P2;PMS_P1;PMS_P2;Temp;Humidity;BMP_temperature;BMP_pressure;BME280_temperature;BME280_humidity;BME280_pressure;Samples;Min_cycle;Max_cycle;Signal;HPM_P1;HPM_P2
2022/05/14 00:01:13;;;;;;;;;;;8.90;99.90;;;;;;5054328;28;19948;-75
2022/05/14 00:03:39;;;;;;;;;;;8.90;99.90;;;;;;5058525;28;20415;-75
2022/05/14 00:06:07;;;;;;;;;;;9.00;99.90;;;;;;5062809;28;19912;-75
2022/05/14 00:08:32;;;;;;;;;;;8.90;99.90;;;;;;5060725;28;19917;-74
2022/05/14 00:13:43;;;;;;;;;;;8.70;99.90;;;;;;5060162;28;19969;-75
2022/05/14 00:16:09;;;;;;;;;;;8.60;99.90;;;;;;5060231;28;20405;-75
2022/05/14 00:18:34;;;;;;;;;;;8.60;99.90;;;;;;5059452;28;19982;-75
2022/05/14 00:21:00;;;;;;;;;;;8.50;99.90;;;;;;5057778;28;19920;-75
2022/05/14 00:23:26;;;;;;;;;;;8.40;99.90;;;;;;5060550;28;19912;-75
2022/05/14 00:25:52;;;;;;;;;;;8.40;99.90;;;;;;5056435;28;20370;-74
2022/05/14 00:28:17;;;;;;;;;;;8.30;99.90;;;;;;5060147;28;19915;-75
2022/05/14 00:30:43;;;;;;;;;;;8.20;99.90;;;;;;5050471;28;20588;-75
2022/05/14 00:33:09;;;;;;;;;;;8.20;99.90;;;;;;5058356;28;19912;-74
2022/05/14 00:35:35;;;;;;;;;;;8.10;99.90;;;;;;5060170;28;19919;-75
2022/05/14 00:38:01;;;;;;;;;;;8.00;99.90;;;;;;5060295;28;19919;-75
2022/05/14 00:40:27;;;;;;;;;;;8.00;99.90;;;;;;5058164;28;19912;-74
2022/05/14 00:42:52;;;;;;;;;;;8.00;99.90;;;;;;5057927;28;19919;-76
2022/05/14 00:45:18;;;;;;;;;;;7.90;99.90;;;;;;5058777;28;19987;-75
2022/05/14 00:47:45;;;;;;;;;;;7.90;99.90;;;;;;5040222;28;20014;-75
2022/05/14 00:50:20;;;;;;;;;;;7.80;99.90;;;;;;5058827;28;20050;-75
2022/05/14 00:52:45;;;;;;;;;;;7.80;99.90;;;;;;5058591;28;19920;-75
2022/05/14 00:55:11;;;;;;;;;;;7.80;99.90;;;;;;5040536;28;20265;-75
2022/05/14 00:57:38;;;;;;;;;;;7.90;99.90;;;;;;5047524;28;19949;-75
2022/05/14 01:00:06;;;;;;;;;;;7.90;99.90;;;;;;5041161;28;19912;-75
2022/05/14 01:02:32;;;;;;;;;;;8.00;99.90;;;;;;5058948;28;19988;-75
2022/05/14 01:04:58;;;;;;;;;;;8.00;99.90;;;;;;5057038;28;19995;-75
2022/05/14 01:07:24;;;;;;;;;;;7.90;99.90;;;;;;5059025;28;19967;-75
2022/05/14 01:09:52;;;;;;;;;;;7.90;99.90;;;;;;5059239;28;19970;-75
2022/05/14 01:12:21;;;;;;;17.80;6.65;;;7.80;99.90;;;;;;5056494;28;20007;-75
2022/05/14 01:14:47;;;;;;;20.73;7.40;;;7.80;99.90;;;;;;5055324;28;20172;-75
2022/05/14 01:17:12;;;;;;;17.52;6.60;;;7.80;99.90;;;;;;5057491;28;20028;-75
2022/05/14 01:19:39;;;;;;;22.50;7.28;;;7.80;99.90;;;;;;5049346;28;20024;-74
2022/05/14 01:22:35;;;;;;;20.52;7.38;;;7.80;99.90;;;;;;5056987;28;20089;-74
2022/05/14 01:27:54;;;;;;;21.40;6.93;;;8.10;99.90;;;;;;5060281;28;20039;-74
2022/05/14 01:30:20;;;;;;;25.88;8.45;;;8.10;99.90;;;;;;5056417;28;20041;-74
2022/05/14 01:33:04;;;;;;;18.85;7.00;;;8.20;99.90;;;;;;5054790;28;20403;-75
2022/05/14 01:35:38;;;;;;;26.63;8.52;;;8.20;99.90;;;;;;5059407;28;20514;-75
2022/05/14 01:38:04;;;;;;;18.10;6.68;;;8.30;99.90;;;;;;5054285;28;20025;-75
2022/05/14 01:40:31;;;;;;;20.73;6.88;;;8.10;99.90;;;;;;5058566;28;20032;-75
2022/05/14 01:42:57;;;;;;;13.40;6.10;;;8.00;99.90;;;;;;5058527;28;20791;-74
2022/05/14 01:45:23;;;;;;;16.23;5.78;;;7.90;99.90;;;;;;5046919;28;20424;-75
2022/05/14 01:47:49;;;;;;;11.85;5.43;;;7.60;99.90;;;;;;5057720;28;20029;-74
2022/05/14 01:50:14;;;;;;;11.18;5.22;;;7.40;99.90;;;;;;5054162;28;20032;-74
2022/05/14 01:52:40;;;;;;;14.90;5.50;;;7.30;99.90;;;;;;5059725;28;20108;-75
2022/05/14 01:55:06;;;;;;;;;;;7.20;99.90;;;;;;5060011;28;19951;-75
2022/05/14 01:57:32;;;;;;;;;;;7.20;99.90;;;;;;5059237;28;19908;-74
2022/05/14 01:59:57;;;;;;;;;;;7.20;99.90;;;;;;5040794;28;19912;-74
2022/05/14 02:02:23;;;;;;;;;;;7.20;99.90;;;;;;5045796;28;20419;-75
2022/05/14 02:04:48;;;;;;;;;;;7.50;99.90;;;;;;5058629;28;20356;-74
2022/05/14 02:07:14;;;;;;;;;;;7.70;99.90;;;;;;5051373;28;20641;-74
2022/05/14 02:09:39;;;;;;;;;;;7.80;99.90;;;;;;5060503;28;19920;-74
2022/05/14 02:12:05;;;;;;;;;;;7.80;99.90;;;;;;5054270;28;19919;-75
2022/05/14 02:14:30;;;;;;;;;;;7.80;99.90;;;;;;5054936;28;19916;-74
2022/05/14 02:16:56;;;;;;;;;;;7.70;99.90;;;;;;5062282;28;19912;-74
2022/05/14 02:19:22;;;;;;;;;;;7.50;99.90;;;;;;5067707;28;19964;-75
2022/05/14 02:21:47;;;;;;;;;;;7.40;99.90;;;;;;5066540;28;19947;-74
2022/05/14 02:24:13;;;;;;;;;;;7.30;99.90;;;;;;5066329;28;19995;-75
2022/05/14 02:26:38;;;;;;;;;;;7.20;99.90;;;;;;5066331;28;19912;-74
2022/05/14 02:29:04;;;;;;;;;;;7.20;99.90;;;;;;5067043;28;19948;-74
2022/05/14 02:31:29;;;;;;;;;;;7.20;99.90;;;;;;5064924;28;19916;-74
2022/05/14 02:33:55;;;;;;;;;;;7.20;99.90;;;;;;5064600;28;19934;-75
2022/05/14 02:36:20;;;;;;;;;;;7.20;99.90;;;;;;5047193;28;20326;-74
2022/05/14 02:38:46;;;;;;;;;;;7.10;99.90;;;;;;5056628;28;19987;-74
2022/05/14 02:41:13;;;;;;;;;;;7.00;99.90;;;;;;5062483;28;19930;-74
2022/05/14 02:43:39;;;;;;;;;;;6.90;99.90;;;;;;5064719;28;20205;-75
2022/05/14 02:46:05;;;;;;;;;;;6.80;99.90;;;;;;5064029;28;19919;-74
2022/05/14 02:48:31;;;;;;;;;;;6.80;99.90;;;;;;5045411;28;19964;-73
2022/05/14 02:50:57;;;;;;;;;;;6.80;99.90;;;;;;5060193;28;20034;-74
2022/05/14 02:53:23;;;;;;;;;;;6.80;99.90;;;;;;5044961;28;20264;-73
2022/05/14 02:55:48;;;;;;;;;;;6.90;99.90;;;;;;5062189;28;20328;-73
2022/05/14 02:59:06;;;;;;;;;;;6.80;99.90;;;;;;5057514;28;19916;-75
2022/05/14 03:00:59;;;;;;;;;;;6.80;99.90;;;;;;5053115;28;19924;-75
2022/05/14 03:03:26;;;;;;;14.20;6.22;;;6.70;99.90;;;;;;5053756;28;19908;-74
2022/05/14 03:05:51;;;;;;;15.18;5.93;;;6.70;99.90;;;;;;5062147;28;20131;-74
2022/05/14 03:08:17;;;;;;;16.25;6.90;;;6.70;99.90;;;;;;5061823;28;20059;-75
2022/05/14 03:10:43;;;;;;;16.88;6.85;;;6.80;99.90;;;;;;5061046;28;20047;-75
2022/05/14 03:13:08;;;;;;;14.73;6.43;;;6.80;99.90;;;;;;5061809;28;20024;-74
2022/05/14 03:15:34;;;;;;;14.90;6.40;;;6.90;99.90;;;;;;5047923;28;20495;-75
2022/05/14 03:18:00;;;;;;;;;;;7.00;99.90;;;;;;5057356;28;20392;-74
2022/05/14 03:20:25;;;;;;;;;;;7.10;99.90;;;;;;5054855;28;19944;-74
2022/05/14 03:22:52;;;;;;;;;;;7.30;99.90;;;;;;5061271;28;19917;-75
2022/05/14 03:25:17;;;;;;;;;;;7.30;99.90;;;;;;5057482;28;19912;-75
2022/05/14 03:27:43;;;;;;;;;;;7.30;99.90;;;;;;5042931;28;19913;-74
2022/05/14 03:30:09;;;;;;;;;;;7.30;99.90;;;;;;5060010;28;20428;-75
2022/05/14 03:32:34;;;;;;;;;;;7.20;99.90;;;;;;5060428;28;19916;-75
2022/05/14 03:35:02;;;;;;;;;;;7.30;99.90;;;;;;5058335;28;19923;-75
2022/05/14 03:37:27;;;;;;;;;;;7.30;99.90;;;;;;5060636;28;19912;-75
2022/05/14 03:39:53;;;;;;;;;;;7.20;99.90;;;;;;5060840;28;19923;-74
2022/05/14 03:42:18;;;;;;;;;;;7.20;99.90;;;;;;5060694;28;19916;-74
2022/05/14 03:44:45;;;;;;;;;;;7.20;99.90;;;;;;5060984;28;20047;-75
2022/05/14 03:47:10;;;;;;;;;;;7.10;99.90;;;;;;5061255;28;20323;-74
2022/05/14 03:49:36;;;;;;;;;;;7.10;99.90;;;;;;5059818;28;20616;-74
2022/05/14 03:52:01;;;;;;;;;;;7.10;99.90;;;;;;5058989;28;19913;-75
2022/05/14 03:54:28;;;;;;;;;;;7.00;99.90;;;;;;5060386;28;19916;-74
2022/05/14 03:56:53;;;;;;;;;;;7.00;99.90;;;;;;5050195;28;19920;-75
2022/05/14 03:59:19;;;;;;;;;;;7.00;99.90;;;;;;5061539;28;19908;-74
2022/05/14 04:01:44;;;;;;;;;;;7.10;99.90;;;;;;5059042;28;20029;-75
2022/05/14 04:04:10;;;;;;;;;;;7.10;99.90;;;;;;5054670;28;19969;-75
2022/05/14 04:06:35;;;;;;;;;;;7.20;99.90;;;;;;5060909;28;20349;-75
2022/05/14 04:09:01;;;;;;;;;;;7.30;99.90;;;;;;5056298;28;19916;-75
2022/05/14 04:11:27;;;;;;;;;;;7.30;99.90;;;;;;5048756;28;20413;-75
2022/05/14 04:13:53;;;;;;;;;;;7.30;99.90;;;;;;5065576;28;19912;-74
2022/05/14 04:16:18;;;;;;;;;;;7.30;99.90;;;;;;5062661;28;19918;-74
2022/05/14 04:18:44;;;;;;;;;;;7.30;99.90;;;;;;5058101;28;19917;-74
2022/05/14 04:21:10;;;;;;;;;;;7.30;99.90;;;;;;5060947;28;20427;-75
2022/05/14 04:23:36;;;;;;;;;;;7.40;99.90;;;;;;5062188;28;19916;-75
2022/05/14 04:26:02;;;;;;;;;;;7.30;99.90;;;;;;5060399;28;20446;-74
2022/05/14 04:28:27;;;;;;;;;;;7.40;99.90;;;;;;5061642;28;19954;-75
2022/05/14 04:30:53;;;;;;;;;;;7.40;99.90;;;;;;5059220;28;20335;-75
2022/05/14 04:33:19;;;;;;;;;;;7.40;99.90;;;;;;5056826;28;19961;-74
2022/05/14 04:35:45;;;;;;;;;;;7.30;99.90;;;;;;5060990;28;19919;-74
2022/05/14 04:38:10;;;;;;;;;;;7.20;99.90;;;;;;5054446;28;19917;-74
2022/05/14 04:40:36;;;;;;;;;;;7.20;99.90;;;;;;5060215;28;19920;-74
2022/05/14 04:43:04;;;;;;;;;;;7.10;99.90;;;;;;5057051;28;19917;-75
2022/05/14 04:45:30;;;;;;;;;;;7.10;99.90;;;;;;5049541;28;19908;-75
2022/05/14 04:47:56;;;;;;;;;;;7.00;99.90;;;;;;5059613;28;19938;-75
2022/05/14 04:50:21;;;;;;;;;;;6.90;99.90;;;;;;5059985;28;19932;-75
2022/05/14 04:52:47;;;;;;;;;;;6.90;99.90;;;;;;5060875;28;20407;-74
2022/05/14 04:55:13;;;;;;;10.32;5.28;;;6.90;99.90;;;;;;5058507;28;19951;-75
2022/05/14 04:57:41;;;;;;;10.18;5.18;;;7.00;99.90;;;;;;5059248;28;20368;-74
2022/05/14 05:00:07;;;;;;;9.77;5.45;;;7.10;99.90;;;;;;5057037;28;20662;-74
2022/05/14 05:05:17;;;;;;;12.30;5.47;;;7.40;99.90;;;;;;5063243;28;20075;-75
2022/05/14 05:07:43;;;;;;;7.05;4.75;;;7.60;99.90;;;;;;5060394;28;20052;-75
2022/05/14 05:10:09;;;;;;;9.27;4.30;;;7.80;99.90;;;;;;5058087;28;20490;-75
2022/05/14 05:12:34;;;;;;;9.63;4.07;;;7.70;99.90;;;;;;5059610;28;20108;-75
2022/05/14 05:15:00;;;;;;;11.23;4.50;;;7.80;99.90;;;;;;5054805;28;20029;-74
2022/05/14 05:17:26;;;;;;;7.55;4.63;;;8.00;99.90;;;;;;5057079;28;20432;-75
2022/05/14 05:19:51;;;;;;;8.60;4.47;;;8.10;99.90;;;;;;5054997;28;20464;-75
2022/05/14 05:22:17;;;;;;;10.32;4.50;;;8.30;99.90;;;;;;5059791;28;20064;-74
2022/05/14 05:24:42;;;;;;;6.90;4.32;;;8.40;99.90;;;;;;5060650;28;20116;-75
2022/05/14 05:27:08;;;;;;;7.60;4.25;;;8.70;99.90;;;;;;5059575;28;20017;-75
2022/05/14 05:29:34;;;;;;;8.93;4.03;;;8.90;99.90;;;;;;5059592;28;20090;-75
2022/05/14 05:32:00;;;;;;;7.60;3.95;;;9.10;99.90;;;;;;5059471;28;20617;-75
2022/05/14 05:34:26;;;;;;;8.10;4.60;;;9.30;99.90;;;;;;5060551;28;20219;-75
2022/05/14 05:36:53;;;;;;;7.97;4.95;;;9.50;99.90;;;;;;5060798;28;20029;-75
2022/05/14 05:39:19;;;;;;;6.82;3.78;;;9.60;99.90;;;;;;5054442;28;20021;-75
2022/05/14 05:41:45;;;;;;;7.93;4.53;;;9.60;99.90;;;;;;5059397;28;20024;-75
2022/05/14 05:44:10;;;;;;;8.07;4.38;;;9.50;99.40;;;;;;5058086;28;20032;-73
2022/05/14 05:46:36;;;;;;;8.52;4.38;;;9.70;99.70;;;;;;5059039;28;20032;-73
2022/05/14 05:49:01;;;;;;;8.15;4.28;;;9.70;99.50;;;;;;5060205;28;20028;-73
2022/05/14 05:51:27;;;;;;;11.13;4.75;;;9.90;99.40;;;;;;5055956;28;20047;-74
2022/05/14 05:56:46;;;;;;;13.95;4.80;;;9.80;98.40;;;;;;5053000;28;20120;-76
2022/05/14 05:59:12;;;;;;;8.95;4.18;;;10.00;98.80;;;;;;5056368;28;20031;-76
2022/05/14 06:01:38;;;;;;;9.18;3.90;;;10.20;98.80;;;;;;5055166;28;20028;-75
2022/05/14 06:04:04;;;;;;;11.27;5.35;;;10.30;97.90;;;;;;5062710;28;20102;-75
2022/05/14 06:06:30;;;;;;;11.85;4.38;;;10.50;97.70;;;;;;5059734;28;20558;-75
2022/05/14 06:08:55;;;;;;;8.18;5.10;;;10.70;97.70;;;;;;5058754;28;20036;-76
2022/05/14 06:11:21;;;;;;;8.43;4.38;;;10.70;96.90;;;;;;5060378;28;20142;-77
2022/05/14 06:13:47;;;;;;;10.13;4.18;;;11.00;97.00;;;;;;5059117;28;20846;-75
2022/05/14 06:16:14;;;;;;;10.50;4.40;;;11.30;96.30;;;;;;5058852;28;20391;-76
2022/05/14 06:18:44;;;;;;;12.27;3.92;;;11.20;95.20;;;;;;5061644;28;20410;-76
2022/05/14 06:21:11;;;;;;;17.73;4.55;;;11.30;95.40;;;;;;5052251;28;20124;-75
2022/05/14 06:23:36;;;;;;;8.90;4.05;;;11.50;95.70;;;;;;5058640;28;20302;-75
2022/05/14 06:26:02;;;;;;;12.38;4.28;;;11.80;95.70;;;;;;5048775;28;20299;-76
2022/05/14 06:28:28;;;;;;;14.40;4.60;;;11.90;95.90;;;;;;5051888;28;20056;-76
2022/05/14 06:30:55;;;;;;;9.77;4.53;;;11.80;96.20;;;;;;5057669;28;20491;-76
2022/05/14 06:33:21;;;;;;;9.05;3.85;;;12.00;95.50;;;;;;5057640;28;20035;-76
2022/05/14 06:35:47;;;;;;;9.95;4.15;;;12.10;95.20;;;;;;5056213;28;20032;-76
2022/05/14 06:38:14;;;;;;;7.07;4.18;;;12.30;96.00;;;;;;5058543;28;20099;-75
2022/05/14 06:40:40;;;;;;;11.07;4.13;;;12.60;94.90;;;;;;5058923;28;20020;-75
2022/05/14 06:43:06;;;;;;;10.25;4.10;;;12.80;93.90;;;;;;5059916;28;20456;-76
2022/05/14 06:45:31;;;;;;;9.38;3.60;;;12.80;92.80;;;;;;5060290;28;20149;-75
2022/05/14 06:47:57;;;;;;;9.88;3.20;;;12.90;93.90;;;;;;5060664;28;20080;-76
2022/05/14 06:50:28;;;;;;;10.20;4.00;;;13.40;93.30;;;;;;5058432;28;20090;-75
2022/05/14 06:52:57;;;;;;;9.70;3.70;;;13.60;91.50;;;;;;5053451;28;20151;-76
2022/05/14 06:55:26;;;;;;;13.38;4.63;;;13.60;92.10;;;;;;5060824;28;20097;-75
2022/05/14 06:57:53;;;;;;;9.98;3.92;;;13.70;91.80;;;;;;5054445;28;20043;-76
2022/05/14 07:00:20;;;;;;;11.23;3.67;;;13.70;91.70;;;;;;5053046;28;20029;-75
2022/05/14 07:02:47;;;;;;;10.52;4.03;;;13.70;91.10;;;;;;5062337;28;20086;-75
2022/05/14 07:07:58;;;;;;;8.98;4.35;;;14.00;91.00;;;;;;5056880;28;20139;-76
2022/05/14 07:10:24;;;;;;;8.00;3.60;;;14.30;91.00;;;;;;5051714;28;20032;-75
2022/05/14 07:12:50;;;;;;;8.95;4.22;;;14.80;89.40;;;;;;5051052;28;20035;-75
2022/05/14 07:15:16;;;;;;;9.75;3.42;;;15.00;88.20;;;;;;5054305;28;20032;-75
2022/05/14 07:17:42;;;;;;;10.93;4.10;;;15.20;88.30;;;;;;5054861;28;20077;-74
2022/05/14 07:20:08;;;;;;;9.93;3.45;;;15.40;88.30;;;;;;5060160;28;20033;-76
2022/05/14 07:22:34;;;;;;;15.45;3.80;;;15.20;86.60;;;;;;5047750;28;20416;-75
2022/05/14 07:24:59;;;;;;;15.90;4.03;;;15.00;85.80;;;;;;5046575;28;20035;-75
2022/05/14 07:27:25;;;;;;;;;;;14.60;88.70;;;;;;5050789;28;20479;-75
2022/05/14 07:29:51;;;;;;;;;;;14.60;88.90;;;;;;5052678;28;19924;-76
2022/05/14 07:32:17;;;;;;;;;;;14.60;88.90;;;;;;5054910;28;19930;-75
2022/05/14 07:34:43;;;;;;;;;;;14.50;90.10;;;;;;5046990;28;19919;-74
2022/05/14 07:37:16;;;;;;;;;;;14.40;90.50;;;;;;5047272;28;20365;-76
2022/05/14 07:39:48;;;;;;;;;;;14.50;91.10;;;;;;5058955;28;19992;-75
2022/05/14 07:42:16;;;;;;;;;;;14.90;90.70;;;;;;5052183;28;19976;-76
2022/05/14 07:44:44;;;;;;;;;;;17.30;85.40;;;;;;5047183;28;20602;-75
2022/05/14 07:47:10;;;;;;;12.75;3.70;;;21.20;69.80;;;;;;5054940;28;20506;-74
2022/05/14 07:49:36;;;;;;;13.13;3.70;;;23.70;59.70;;;;;;5053504;28;20036;-73
2022/05/14 07:52:02;;;;;;;9.20;3.15;;;26.60;50.00;;;;;;5053707;28;20559;-73
2022/05/14 07:54:28;;;;;;;12.82;3.97;;;27.70;44.60;;;;;;5055945;28;20055;-73
2022/05/14 07:56:55;;;;;;;12.10;3.38;;;28.60;42.80;;;;;;5054220;28;20498;-77
2022/05/14 07:59:21;;;;;;;10.75;3.35;;;28.60;41.70;;;;;;5049065;28;20122;-82
2022/05/14 08:01:47;;;;;;;7.22;3.10;;;27.90;43.90;;;;;;5056854;28;20044;-78
2022/05/14 08:04:13;;;;;;;11.82;3.78;;;29.90;40.60;;;;;;5058747;28;20028;-76
2022/05/14 08:06:39;;;;;;;13.98;3.28;;;31.20;38.20;;;;;;5059217;28;20031;-78
2022/05/14 08:09:05;;;;;;;13.50;3.70;;;30.40;39.30;;;;;;5057872;28;20032;-79
2022/05/14 08:11:31;;;;;;;11.93;2.70;;;31.40;37.40;;;;;;5057517;28;20037;-79
2022/05/14 08:13:58;;;;;;;9.30;2.70;;;32.70;36.60;;;;;;5055780;28;20032;-78
2022/05/14 08:16:25;;;;;;;9.35;3.15;;;32.00;35.70;;;;;;5053627;28;20128;-79
2022/05/14 08:18:51;;;;;;;9.55;3.60;;;32.90;34.40;;;;;;5051753;28;20029;-79
2022/05/14 08:26:50;;;;;;;8.90;3.05;;;32.40;33.30;;;;;;5048554;28;20507;-79
2022/05/14 08:29:17;;;;;;;12.27;3.28;;;29.10;36.50;;;;;;5059397;28;20033;-79
2022/05/14 08:31:42;;;;;;;11.55;3.67;;;28.50;42.00;;;;;;5051460;28;20047;-78
2022/05/14 08:34:08;;;;;;;12.55;3.78;;;28.70;42.30;;;;;;5051865;28;20091;-79
2022/05/14 08:36:34;;;;;;;11.07;3.30;;;30.50;41.20;;;;;;5055987;28;20112;-78
2022/05/14 08:39:00;;;;;;;8.93;3.53;;;29.80;38.80;;;;;;5052241;28;20028;-78
2022/05/14 08:41:26;;;;;;;7.63;3.40;;;31.30;38.20;;;;;;5052806;28;20120;-79
2022/05/14 08:43:59;;;;;;;10.30;3.22;;;32.20;36.40;;;;;;5061905;28;20044;-79
2022/05/14 08:46:26;;;;;;;7.65;3.28;;;32.80;32.50;;;;;;5057655;28;20134;-79
2022/05/14 08:48:56;;;;;;;14.25;4.05;;;31.30;35.20;;;;;;5050297;28;20055;-78
2022/05/14 08:51:26;;;;;;;11.43;3.63;;;31.80;35.20;;;;;;5058059;28;20135;-78
2022/05/14 08:53:52;;;;;;;13.75;4.15;;;30.40;36.90;;;;;;5052104;28;20102;-79
2022/05/14 08:56:24;;;;;;;8.32;3.38;;;31.30;36.40;;;;;;5042026;28;20035;-78
2022/05/14 08:59:33;;;;;;;13.30;3.70;;;32.00;35.90;;;;;;5044524;28;20123;-78
2022/05/14 09:02:04;;;;;;;9.35;2.72;;;31.40;34.90;;;;;;5056165;28;20067;-78
2022/05/14 09:04:30;;;;;;;12.05;3.15;;;31.80;34.90;;;;;;5060984;28;20039;-78
2022/05/14 09:06:56;;;;;;;11.15;3.08;;;32.70;34.00;;;;;;5055695;28;20024;-77
2022/05/14 09:09:21;;;;;;;11.65;3.08;;;32.30;31.50;;;;;;5050899;28;20040;-78
2022/05/14 09:11:56;;;;;;;6.95;2.60;;;31.90;35.50;;;;;;5052987;28;20314;-78
2022/05/14 09:14:35;;;;;;;12.45;2.80;;;33.00;36.20;;;;;;5056668;28;20032;-78
2022/05/14 09:17:22;;;;;;;9.43;2.58;;;31.40;32.70;;;;;;5055063;28;20051;-77
2022/05/14 09:19:50;;;;;;;13.35;2.75;;;31.50;31.40;;;;;;5055501;28;20099;-76
2022/05/14 09:22:17;;;;;;;10.63;2.80;;;31.00;34.10;;;;;;5054862;28;20025;-78
2022/05/14 09:24:50;;;;;;;9.68;2.30;;;30.80;35.10;;;;;;5053740;28;20069;-77
2022/05/14 09:27:36;;;;;;;7.82;2.20;;;31.00;37.10;;;;;;5060010;28;20020;-78
2022/05/14 09:30:06;;;;;;;5.88;1.80;;;31.40;37.30;;;;;;5036984;28;20052;-78
2022/05/14 09:32:42;;;;;;;6.47;2.45;;;31.00;38.50;;;;;;5058957;28;20500;-79
2022/05/14 09:35:07;;;;;;;7.35;2.33;;;30.90;34.30;;;;;;5053483;28;20165;-78
2022/05/14 09:37:33;;;;;;;10.02;2.90;;;31.10;36.20;;;;;;5053628;28;20037;-77
2022/05/14 09:40:08;;;;;;;12.13;2.50;;;30.80;36.70;;;;;;5054082;28;20073;-78
2022/05/14 09:42:46;;;;;;;7.22;2.25;;;30.40;35.20;;;;;;5059360;28;20080;-79
2022/05/14 09:45:32;;;;;;;7.97;2.00;;;29.90;36.00;;;;;;5048971;28;20106;-79
2022/05/14 09:48:31;;;;;;;7.75;2.47;;;31.00;36.40;;;;;;5040184;28;20020;-76
2022/05/14 09:50:59;;;;;;;7.10;2.28;;;30.80;36.90;;;;;;5033808;28;20044;-78
2022/05/14 09:53:28;;;;;;;5.72;2.20;;;30.80;35.40;;;;;;5039383;28;20044;-81
2022/05/14 09:56:26;;;;;;;7.82;1.73;;;30.90;36.90;;;;;;5058505;28;20062;-79
2022/05/14 09:59:13;;;;;;;6.70;2.17;;;31.00;34.00;;;;;;5016843;28;20163;-80
2022/05/14 10:02:06;;;;;;;6.22;1.95;;;30.10;34.50;;;;;;5038159;28;20032;-78
2022/05/14 10:04:56;;;;;;;8.63;2.40;;;30.20;40.70;;;;;;5060043;28;20039;-78
2022/05/14 10:07:33;;;;;;;8.38;2.30;;;30.90;35.20;;;;;;5051076;28;20029;-78
2022/05/14 10:10:47;;;;;;;8.38;2.15;;;29.60;34.70;;;;;;5063023;28;20043;-80
2022/05/14 10:13:27;;;;;;;7.22;2.15;;;29.70;38.40;;;;;;4984699;28;20034;-81
2022/05/14 10:16:12;;;;;;;5.78;1.90;;;30.00;34.40;;;;;;4975989;28;20129;-78
2022/05/14 10:18:44;;;;;;;7.97;2.30;;;30.40;33.60;;;;;;5035639;28;20036;-78
2022/05/14 10:21:31;;;;;;;11.07;2.15;;;30.20;34.80;;;;;;5062557;28;20094;-78
2022/05/14 10:27:37;;;;;;;9.15;2.45;;;30.50;33.70;;;;;;4997221;28;20093;-77
2022/05/14 10:30:08;;;;;;;8.00;2.17;;;30.80;36.20;;;;;;5059722;28;20509;-76
2022/05/14 10:32:34;;;;;;;10.27;2.63;;;30.70;33.10;;;;;;5047953;28;20487;-78
2022/05/14 10:35:26;;;;;;;6.75;2.30;;;30.40;34.50;;;;;;5054752;28;20112;-78
2022/05/14 10:37:55;;;;;;;6.88;2.05;;;29.90;37.10;;;;;;5062888;28;20048;-77
2022/05/14 10:40:34;;;;;;;5.07;2.00;;;29.70;43.30;;;;;;5063821;28;20027;-77
2022/05/14 10:43:26;;;;;;;10.07;2.33;;;29.30;36.20;;;;;;5060376;28;20028;-75
2022/05/14 10:45:56;;;;;;;8.00;2.10;;;29.00;38.10;;;;;;5047698;28;20032;-77
2022/05/14 10:48:56;;;;;;;7.07;2.25;;;29.10;41.70;;;;;;5060716;28;20036;-78
2022/05/14 10:51:31;;;;;;;7.97;2.35;;;28.90;41.70;;;;;;5005369;28;20869;-78
2022/05/14 10:54:00;;;;;;;5.43;2.15;;;29.20;36.60;;;;;;5064051;28;20178;-80
2022/05/14 10:56:34;;;;;;;11.85;2.47;;;29.20;40.30;;;;;;5050345;28;20033;-79
2022/05/14 10:59:12;;;;;;;7.80;1.88;;;28.90;41.40;;;;;;5054144;28;20076;-78
2022/05/14 11:01:46;;;;;;;9.95;2.20;;;29.10;40.80;;;;;;5032467;28;20032;-77
2022/05/14 11:04:45;;;;;;;10.88;2.30;;;28.80;42.10;;;;;;5058211;28;20120;-78
2022/05/14 11:07:35;;;;;;;8.85;2.03;;;28.30;43.10;;;;;;5056592;28;20024;-77
2022/05/14 11:10:13;;;;;;;5.60;1.65;;;27.40;38.60;;;;;;5044823;28;20052;-77
2022/05/14 11:12:39;;;;;;;8.73;2.28;;;27.10;45.20;;;;;;5042430;28;20032;-78
2022/05/14 11:15:24;;;;;;;10.98;2.22;;;26.80;40.60;;;;;;5050441;28;20496;-79
2022/05/14 11:18:15;;;;;;;8.60;2.17;;;26.90;42.00;;;;;;5059795;28;20029;-79
2022/05/14 11:20:54;;;;;;;9.70;2.30;;;27.50;41.40;;;;;;5055643;28;20037;-80
2022/05/14 11:23:20;;;;;;;5.93;1.80;;;26.20;42.70;;;;;;5059197;28;20024;-78
2022/05/14 11:25:46;;;;;;;11.05;2.53;;;25.30;48.00;;;;;;5056592;28;20124;-78
2022/05/14 11:28:16;;;;;;;8.13;2.10;;;25.30;50.50;;;;;;5042976;28;20476;-79
2022/05/14 11:30:48;;;;;;;12.07;2.53;;;25.70;48.50;;;;;;5059950;28;20044;-79
2022/05/14 11:33:23;;;;;;;8.55;1.73;;;25.90;49.20;;;;;;5049805;28;20407;-77
2022/05/14 11:35:51;;;;;;;7.90;2.78;;;25.80;45.30;;;;;;5062075;28;20089;-79
2022/05/14 11:38:28;;;;;;;18.80;2.78;;;25.60;47.30;;;;;;5062260;28;20199;-77
2022/05/14 11:41:37;;;;;;;9.95;2.28;;;25.40;51.10;;;;;;5061012;28;20035;-78
2022/05/14 11:44:06;;;;;;;7.22;2.50;;;25.10;49.30;;;;;;5034087;28;20076;-75
2022/05/14 11:46:48;;;;;;;9.52;2.15;;;24.70;47.30;;;;;;5057779;28;20044;-77
2022/05/14 11:49:32;;;;;;;9.82;2.58;;;24.40;50.80;;;;;;5055842;28;20388;-77
2022/05/14 11:52:24;;;;;;;8.93;2.78;;;24.80;58.40;;;;;;5054302;28;20119;-77
2022/05/14 11:55:13;;;;;;;6.63;2.20;;;24.20;50.40;;;;;;5034579;28;20103;-77
2022/05/14 11:57:41;;;;;;;9.05;2.08;;;23.60;49.90;;;;;;5036298;28;20029;-77
2022/05/14 12:00:14;;;;;;;8.02;2.35;;;23.50;52.30;;;;;;5035797;28;20029;-78
2022/05/14 12:03:01;;;;;;;11.13;2.63;;;23.70;51.70;;;;;;5028287;28;20124;-81
2022/05/14 12:05:45;;;;;;;8.73;2.53;;;23.70;54.30;;;;;;5023335;28;20079;-77
2022/05/14 12:08:38;;;;;;;7.47;2.25;;;23.70;53.10;;;;;;5027876;28;20570;-76
2022/05/14 12:11:27;;;;;;;11.85;2.58;;;23.60;59.40;;;;;;5034066;28;20036;-77
2022/05/14 12:14:10;;;;;;;12.43;3.13;;;23.70;54.50;;;;;;5034673;28;20359;-78
2022/05/14 12:16:55;;;;;;;20.30;4.00;;;23.40;47.80;;;;;;5034418;28;20037;-76
2022/05/14 12:19:29;;;;;;;7.93;2.13;;;23.30;55.00;;;;;;4342290;28;10000341;-77
2022/05/14 12:22:03;;;;;;;9.85;2.28;;;23.40;54.60;;;;;;5019406;28;20074;-75
2022/05/14 12:24:32;;;;;;;6.30;2.08;;;23.50;51.60;;;;;;5046179;28;20025;-77
2022/05/14 12:26:58;;;;;;;8.30;2.20;;;23.70;51.60;;;;;;5030724;28;20461;-78
2022/05/14 12:29:31;;;;;;;8.07;2.55;;;23.90;54.80;;;;;;5000813;28;20034;-77
2022/05/14 12:34:43;;;;;;;9.68;2.47;;;23.80;53.40;;;;;;5032593;28;20078;-78
2022/05/14 12:37:33;;;;;;;9.00;2.80;;;24.00;51.30;;;;;;5014976;28;20039;-76
2022/05/14 12:39:59;;;;;;;10.73;2.42;;;24.20;49.40;;;;;;5036490;28;20098;-77
2022/05/14 12:42:41;;;;;;;9.02;1.98;;;24.00;50.80;;;;;;5032500;28;20506;-76
2022/05/14 12:45:09;;;;;;;9.38;2.45;;;23.90;53.50;;;;;;5033132;28;20033;-75
2022/05/14 12:47:37;;;;;;;8.18;2.25;;;23.70;51.80;;;;;;5031613;28;20559;-76
2022/05/14 12:50:15;;;;;;;12.90;2.83;;;23.50;50.10;;;;;;5031625;28;20341;-77
2022/05/14 12:52:53;;;;;;;6.50;2.22;;;23.30;52.60;;;;;;5039283;28;20055;-77
2022/05/14 12:55:19;;;;;;;9.98;2.70;;;23.20;49.60;;;;;;5052088;28;20460;-76
2022/05/14 12:57:47;;;;;;;12.30;2.50;;;23.20;54.00;;;;;;5056598;28;20567;-76
2022/05/14 13:00:17;;;;;;;6.43;2.05;;;23.30;51.60;;;;;;5059139;28;20040;-76
2022/05/14 13:02:53;;;;;;;4.80;2.28;;;23.40;50.10;;;;;;5060500;28;20024;-76
2022/05/14 13:05:22;;;;;;;8.50;2.10;;;23.60;54.10;;;;;;5042028;28;20036;-76
2022/05/14 13:07:49;;;;;;;5.28;1.95;;;23.50;47.50;;;;;;5059042;28;20060;-75
2022/05/14 13:10:19;;;;;;;7.47;2.08;;;23.40;46.60;;;;;;5057031;28;20040;-76
2022/05/14 13:13:06;;;;;;;7.18;2.55;;;23.40;57.20;;;;;;5054738;28;20301;-77
2022/05/14 13:15:41;;;;;;;10.35;2.30;;;23.50;50.30;;;;;;5056785;28;20047;-76
2022/05/14 13:18:26;;;;;;;7.13;1.85;;;22.90;47.70;;;;;;5053039;28;20020;-76
2022/05/14 13:21:03;;;;;;;6.68;2.17;;;22.80;54.80;;;;;;5035849;28;20040;-76
2022/05/14 13:23:30;;;;;;;9.43;2.47;;;22.90;53.50;;;;;;5046482;28;20185;-76
2022/05/14 13:26:08;;;;;;;11.02;2.97;;;23.00;55.50;;;;;;5057735;28;20062;-77
2022/05/14 13:28:40;;;;;;;10.35;2.10;;;22.90;54.60;;;;;;5057411;28;20028;-76
2022/05/14 13:31:26;;;;;;;7.32;2.22;;;23.00;52.80;;;;;;5051123;28;20156;-76
2022/05/14 13:37:07;;;;;;;6.18;2.10;;;22.80;57.60;;;;;;5051255;28;20563;-76
2022/05/14 13:37:08;;;;;;;9.93;2.30;;;22.90;54.50;;;;;;5050212;28;20126;-76
2022/05/14 13:39:47;;;;;;;9.70;2.22;;;22.90;54.60;;;;;;5050844;28;20078;-76
2022/05/14 13:42:34;;;;;;;8.68;2.08;;;22.80;50.30;;;;;;5049909;28;20028;-77
2022/05/14 13:45:23;;;;;;;7.15;2.05;;;22.40;51.60;;;;;;5050953;28;20031;-76
2022/05/14 13:48:01;;;;;;;7.25;2.30;;;22.70;56.00;;;;;;5052850;28;20116;-76
2022/05/14 13:50:34;;;;;;;9.32;2.08;;;22.90;52.30;;;;;;5052362;28;20166;-76
2022/05/14 13:53:01;;;;;;;7.28;1.80;;;22.90;49.40;;;;;;5051640;28;20044;-75
2022/05/14 13:55:41;;;;;;;9.30;2.22;;;22.70;49.20;;;;;;5050139;28;20041;-75
2022/05/14 13:58:26;;;;;;;11.60;2.42;;;22.80;53.30;;;;;;5052070;28;20380;-75